createdAt,value
2018-05-31T00:02:15.374Z,81.61
2018-05-31T00:04:42.886Z,81.89
2018-05-31T00:07:10.397Z,81.99
2018-05-31T00:09:37.925Z,82.13
2018-05-31T00:12:05.443Z,82.22
2018-05-31T00:14:32.985Z,82.37
2018-05-31T00:17:00.510Z,81.87
2018-05-31T00:19:28.067Z,82.29
2018-05-31T00:21:55.577Z,82.44
2018-05-31T00:24:23.087Z,82.39
2018-05-31T00:26:50.618Z,82.46
2018-05-31T00:29:18.182Z,81.92
2018-05-31T00:31:45.710Z,81.04
2018-05-31T00:34:13.218Z,81.05
2018-05-31T00:36:40.762Z,81.25
2018-05-31T00:39:08.258Z,81.62
2018-05-31T00:41:35.786Z,81.97
2018-05-31T00:44:03.354Z,82.34
2018-05-31T00:46:30.875Z,82.11
2018-05-31T00:48:58.403Z,82.11
2018-05-31T00:51:25.960Z,82.87
2018-05-31T00:53:53.461Z,83.68
2018-05-31T00:56:20.987Z,84.07
2018-05-31T00:58:48.515Z,84.47
2018-05-31T01:01:16.262Z,84.48
2018-05-31T01:03:43.777Z,84.49
2018-05-31T01:06:11.298Z,84.64
2018-05-31T01:08:38.982Z,85.22
2018-05-31T01:11:06.493Z,85.40
2018-05-31T01:13:34.010Z,84.96
2018-05-31T01:16:01.568Z,84.29
2018-05-31T01:18:29.090Z,84.79
2018-05-31T01:20:56.646Z,85.43
2018-05-31T01:23:24.169Z,85.76
2018-05-31T01:25:51.706Z,85.91
2018-05-31T01:28:19.231Z,85.58
2018-05-31T01:30:46.807Z,85.97
2018-05-31T01:33:14.347Z,86.36
2018-05-31T01:35:41.869Z,86.63
2018-05-31T01:38:21.309Z,86.67
2018-05-31T01:40:48.821Z,86.80
2018-05-31T01:43:16.792Z,86.88
2018-05-31T01:45:44.312Z,86.74
2018-05-31T01:48:11.830Z,86.96
2018-05-31T01:50:39.376Z,86.90
2018-05-31T01:53:06.890Z,87.05
2018-05-31T01:55:34.545Z,87.05
2018-05-31T01:58:02.074Z,87.14
2018-05-31T02:00:29.585Z,86.52
2018-05-31T02:02:57.276Z,85.61
2018-05-31T02:05:24.806Z,86.41
2018-05-31T02:07:52.403Z,86.95
2018-05-31T02:10:20.262Z,86.95
2018-05-31T02:12:47.783Z,87.04
2018-05-31T02:15:16.247Z,87.10
2018-05-31T02:17:44.261Z,86.38
2018-05-31T02:20:11.784Z,86.41
2018-05-31T02:22:40.401Z,86.83
2018-05-31T02:25:07.943Z,87.13
2018-05-31T02:27:35.471Z,87.19
2018-05-31T02:30:03.022Z,87.26
2018-05-31T02:32:30.603Z,86.74
2018-05-31T02:34:58.131Z,86.69
2018-05-31T02:37:25.685Z,86.33
2018-05-31T02:39:53.239Z,86.50
2018-05-31T02:42:21.226Z,86.71
2018-05-31T02:44:48.754Z,86.79
2018-05-31T02:47:16.290Z,86.90
2018-05-31T02:49:43.851Z,87.07
2018-05-31T02:52:11.393Z,87.36
2018-05-31T02:54:39.355Z,87.18
2018-05-31T02:57:06.896Z,87.21
2018-05-31T02:59:34.414Z,87.00
2018-05-31T03:02:01.970Z,87.27
2018-05-31T03:04:29.526Z,87.32
2018-05-31T03:06:57.552Z,87.29
2018-05-31T03:09:25.091Z,87.47
2018-05-31T03:11:52.617Z,87.81
2018-05-31T03:14:20.586Z,88.19
2018-05-31T03:16:48.123Z,88.16
2018-05-31T03:19:15.653Z,87.76
2018-05-31T03:21:43.223Z,87.86
2018-05-31T03:24:11.055Z,88.42
2018-05-31T03:26:38.578Z,88.95
2018-05-31T03:29:06.105Z,89.25
2018-05-31T03:31:33.652Z,89.56
2018-05-31T03:34:01.194Z,89.72
2018-05-31T03:36:28.720Z,88.01
2018-05-31T03:38:56.436Z,87.58
2018-05-31T03:41:23.962Z,88.11
2018-05-31T03:43:51.492Z,87.22
2018-05-31T03:46:19.050Z,87.69
2018-05-31T03:48:46.579Z,87.27
2018-05-31T03:51:14.162Z,86.85
2018-05-31T03:53:41.998Z,86.83
2018-05-31T03:56:09.507Z,87.25
2018-05-31T03:58:37.213Z,86.30
2018-05-31T04:01:04.733Z,85.91
2018-05-31T04:03:32.254Z,86.31
2018-05-31T04:05:59.820Z,85.60
2018-05-31T04:08:27.367Z,85.57
2018-05-31T04:10:55.296Z,84.62
2018-05-31T04:13:22.843Z,83.44
2018-05-31T04:15:50.377Z,83.15
2018-05-31T04:18:17.931Z,82.97
2018-05-31T04:20:45.468Z,82.85
2018-05-31T04:23:13.017Z,82.88
2018-05-31T04:25:40.545Z,81.25
2018-05-31T04:28:08.202Z,80.63
2018-05-31T04:30:35.718Z,80.59
2018-05-31T04:33:03.226Z,80.72
2018-05-31T04:35:30.762Z,80.17
2018-05-31T04:37:58.287Z,80.65
2018-05-31T04:40:25.857Z,79.55
2018-05-31T04:42:53.383Z,79.19
2018-05-31T04:45:20.899Z,79.77
2018-05-31T04:47:48.451Z,79.84
2018-05-31T04:50:15.974Z,79.73
2018-05-31T04:52:43.544Z,79.77
2018-05-31T04:55:11.055Z,78.58
2018-05-31T04:57:38.596Z,77.94
2018-05-31T05:00:06.105Z,77.40
2018-05-31T05:02:33.650Z,75.81
2018-05-31T05:05:01.175Z,74.36
2018-05-31T05:07:28.717Z,72.77
2018-05-31T05:09:56.638Z,71.08
2018-05-31T05:12:24.154Z,69.27
2018-05-31T05:14:51.668Z,67.70
2018-05-31T05:17:19.202Z,66.70
2018-05-31T05:19:46.752Z,65.48
2018-05-31T05:22:14.267Z,64.45
2018-05-31T05:24:42.285Z,66.07
2018-05-31T05:27:09.823Z,71.35
2018-05-31T05:29:37.356Z,69.14
2018-05-31T05:32:04.886Z,68.07
2018-05-31T05:34:32.408Z,68.25
2018-05-31T05:36:59.976Z,66.42
2018-05-31T05:39:27.486Z,65.38
2018-05-31T05:41:55.009Z,70.10
2018-05-31T05:44:22.595Z,65.86
2018-05-31T05:46:50.114Z,67.54
2018-05-31T05:49:17.627Z,67.39
2018-05-31T05:51:45.168Z,63.03
2018-05-31T05:54:12.776Z,60.09
2018-05-31T05:56:40.355Z,60.33
2018-05-31T05:59:07.870Z,59.22
2018-05-31T06:01:35.374Z,58.75
2018-05-31T06:04:02.918Z,58.34
2018-05-31T06:06:30.434Z,62.03
2018-05-31T06:08:57.974Z,64.83
2018-05-31T06:11:25.526Z,58.43
2018-05-31T06:13:53.060Z,56.64
2018-05-31T06:16:20.623Z,54.51
2018-05-31T06:18:48.131Z,55.93
2018-05-31T06:21:15.675Z,54.18
2018-05-31T06:23:43.648Z,52.29
2018-05-31T06:26:11.167Z,55.37
2018-05-31T06:28:38.686Z,55.67
2018-05-31T06:31:06.322Z,57.15
2018-05-31T06:33:33.889Z,54.01
2018-05-31T06:36:01.377Z,59.57
2018-05-31T06:38:28.902Z,53.53
2018-05-31T06:40:56.438Z,56.30
2018-05-31T06:43:23.989Z,58.21
2018-05-31T06:45:51.501Z,55.66
2018-05-31T06:48:19.031Z,54.57
2018-05-31T06:50:47.039Z,54.73
2018-05-31T06:53:14.539Z,54.93
2018-05-31T06:55:42.188Z,55.00
2018-05-31T06:58:09.703Z,53.98
2018-05-31T07:00:37.207Z,54.86
2018-05-31T07:03:04.874Z,55.46
2018-05-31T07:05:32.374Z,58.08
2018-05-31T07:07:59.878Z,58.83
2018-05-31T07:10:27.412Z,59.91
2018-05-31T07:12:55.318Z,57.25
2018-05-31T07:15:22.828Z,59.18
2018-05-31T07:17:50.347Z,62.18
2018-05-31T07:20:18.224Z,63.20
2018-05-31T07:22:45.725Z,64.33
2018-05-31T07:25:13.229Z,63.21
2018-05-31T07:27:40.755Z,61.57
2018-05-31T07:30:08.302Z,61.50
2018-05-31T07:32:35.811Z,60.96
2018-05-31T07:35:03.324Z,61.23
2018-05-31T07:37:30.854Z,63.25
2018-05-31T07:39:58.395Z,62.86
2018-05-31T07:42:26.096Z,62.42
2018-05-31T07:44:53.601Z,61.69
2018-05-31T07:47:21.130Z,63.19
2018-05-31T07:49:48.821Z,60.76
2018-05-31T07:52:16.327Z,59.75
2018-05-31T07:54:43.835Z,59.11
2018-05-31T07:57:11.362Z,58.37
2018-05-31T07:59:39.307Z,59.17
2018-05-31T08:02:06.814Z,59.38
2018-05-31T08:04:34.319Z,60.20
2018-05-31T08:07:02.196Z,58.75
2018-05-31T08:09:29.706Z,58.76
2018-05-31T08:11:57.388Z,59.64
2018-05-31T08:14:24.899Z,58.79
2018-05-31T08:16:52.412Z,59.42
2018-05-31T08:19:20.316Z,58.16
2018-05-31T08:21:47.835Z,57.11
2018-05-31T08:24:15.335Z,58.00
2018-05-31T08:26:42.963Z,59.60
2018-05-31T08:29:10.468Z,58.29
2018-05-31T08:31:38.051Z,57.53
2018-05-31T08:34:05.527Z,57.05
2018-05-31T08:36:33.041Z,55.02
2018-05-31T08:39:00.614Z,58.14
2018-05-31T08:41:28.126Z,58.84
2018-05-31T08:43:55.638Z,56.42
2018-05-31T08:46:23.610Z,57.38
2018-05-31T08:48:51.123Z,57.24
2018-05-31T08:51:18.632Z,57.47
2018-05-31T08:53:47.187Z,57.19
2018-05-31T08:56:14.692Z,59.20
2018-05-31T08:58:42.412Z,57.05
2018-05-31T09:01:09.902Z,57.09
2018-05-31T09:03:37.400Z,57.24
2018-05-31T09:06:04.928Z,55.35
2018-05-31T09:08:32.431Z,54.60
2018-05-31T09:10:59.960Z,55.19
2018-05-31T09:14:07.395Z,56.75
2018-05-31T09:16:34.924Z,54.14
2018-05-31T09:19:02.424Z,55.66
2018-05-31T09:21:29.946Z,54.80
2018-05-31T09:23:57.483Z,52.98
2018-05-31T09:26:24.996Z,52.56
2018-05-31T09:28:52.721Z,52.12
2018-05-31T09:31:20.228Z,54.82
2018-05-31T09:33:47.750Z,52.62
2018-05-31T09:36:15.752Z,52.46
2018-05-31T09:38:43.250Z,53.95
2018-05-31T09:41:10.799Z,53.37
2018-05-31T09:43:38.322Z,53.18
2018-05-31T09:46:05.841Z,55.21
2018-05-31T09:48:33.387Z,52.76
2018-05-31T09:51:00.899Z,51.32
2018-05-31T09:53:28.399Z,52.59
2018-05-31T09:55:56.439Z,51.06
2018-05-31T09:58:23.939Z,53.09
2018-05-31T10:00:51.442Z,51.00
2018-05-31T10:03:19.155Z,51.70
2018-05-31T10:05:46.664Z,51.62
2018-05-31T10:08:14.164Z,51.25
2018-05-31T10:10:41.866Z,53.10
2018-05-31T10:13:09.362Z,50.71
2018-05-31T10:15:36.875Z,49.73
2018-05-31T10:18:04.447Z,52.70
2018-05-31T10:20:31.954Z,53.33
2018-05-31T10:22:59.459Z,52.79
2018-05-31T10:25:26.980Z,51.64
2018-05-31T10:27:54.511Z,51.44
2018-05-31T10:30:22.014Z,50.46
2018-05-31T10:32:49.542Z,51.71
2018-05-31T10:35:17.048Z,52.60
2018-05-31T10:37:44.579Z,52.68
2018-05-31T10:40:12.112Z,51.88
2018-05-31T10:42:39.624Z,52.21
2018-05-31T10:45:07.818Z,52.00
2018-05-31T10:47:35.327Z,53.65
2018-05-31T10:50:02.860Z,52.76
2018-05-31T10:52:30.358Z,50.94
2018-05-31T10:54:58.087Z,50.48
2018-05-31T10:57:25.591Z,48.35
2018-05-31T10:59:53.095Z,49.99
2018-05-31T11:02:20.631Z,50.16
2018-05-31T11:04:48.149Z,48.22
2018-05-31T11:07:16.061Z,51.33
2018-05-31T11:09:43.558Z,49.84
2018-05-31T11:12:11.058Z,50.42
2018-05-31T11:14:38.578Z,50.33
2018-05-31T11:17:06.103Z,49.85
2018-05-31T11:19:33.603Z,46.35
2018-05-31T11:22:01.162Z,46.98
2018-05-31T11:24:28.666Z,50.41
2018-05-31T11:26:56.176Z,51.71
2018-05-31T11:29:23.702Z,51.57
2018-05-31T11:31:51.586Z,49.19
2018-05-31T11:34:19.090Z,49.72
2018-05-31T11:36:46.602Z,51.50
2018-05-31T11:39:14.143Z,50.32
2018-05-31T11:41:41.661Z,49.83
2018-05-31T11:44:09.357Z,51.75
2018-05-31T11:46:36.855Z,51.52
2018-05-31T11:49:04.360Z,50.62
2018-05-31T11:51:31.899Z,50.60
2018-05-31T11:53:59.399Z,48.52
2018-05-31T11:56:26.974Z,47.79
2018-05-31T11:58:54.476Z,49.08
2018-05-31T12:01:21.988Z,48.54
2018-05-31T12:03:49.554Z,51.60
2018-05-31T12:06:17.424Z,50.08
2018-05-31T12:08:44.927Z,48.00
2018-05-31T12:11:12.425Z,46.08
2018-05-31T12:13:39.988Z,46.70
2018-05-31T12:16:07.510Z,46.22
2018-05-31T12:18:35.024Z,47.41
2018-05-31T12:21:02.571Z,47.01
2018-05-31T12:23:30.090Z,47.29
2018-05-31T12:25:57.591Z,47.15
2018-05-31T12:28:25.114Z,47.60
2018-05-31T12:30:52.677Z,47.99
2018-05-31T12:33:20.185Z,51.28
2018-05-31T12:35:47.690Z,50.19
2018-05-31T12:38:15.218Z,51.30
2018-05-31T12:40:42.731Z,50.52
2018-05-31T12:43:10.300Z,51.59
2018-05-31T12:45:37.801Z,54.42
2018-05-31T12:48:05.302Z,52.65
2018-05-31T12:50:32.830Z,54.73
2018-05-31T12:53:00.335Z,53.01
2018-05-31T12:55:28.062Z,54.05
2018-05-31T12:57:55.568Z,53.54
2018-05-31T13:00:23.080Z,54.60
2018-05-31T13:02:50.603Z,56.71
2018-05-31T13:05:18.107Z,56.91
2018-05-31T13:07:45.836Z,57.42
2018-05-31T13:10:13.343Z,62.60
2018-05-31T13:12:40.846Z,64.69
2018-05-31T13:15:08.370Z,63.83
2018-05-31T13:17:35.938Z,64.91
2018-05-31T13:20:03.443Z,66.97
2018-05-31T13:22:30.951Z,67.90
2018-05-31T13:24:58.478Z,67.77
2018-05-31T13:27:26.147Z,69.91
2018-05-31T13:29:53.677Z,71.08
2018-05-31T13:32:21.174Z,70.41
2018-05-31T13:34:48.687Z,72.80
2018-05-31T13:37:16.234Z,73.68
2018-05-31T13:39:43.736Z,73.94
2018-05-31T13:42:11.264Z,74.96
2018-05-31T13:44:38.766Z,75.95
2018-05-31T13:47:06.289Z,76.61
2018-05-31T13:49:33.791Z,76.98
2018-05-31T13:52:01.381Z,77.19
2018-05-31T13:54:28.891Z,78.26
2018-05-31T13:56:56.400Z,79.52
2018-05-31T13:59:23.919Z,78.81
2018-05-31T14:01:51.414Z,78.62
2018-05-31T14:04:18.941Z,79.80
2018-05-31T14:06:46.441Z,79.75
2018-05-31T14:09:13.971Z,79.73
2018-05-31T14:11:41.711Z,80.01
2018-05-31T14:14:09.245Z,81.09
2018-05-31T14:16:36.767Z,81.78
2018-05-31T14:19:04.285Z,81.75
2018-05-31T14:21:32.006Z,81.28
2018-05-31T14:23:59.515Z,81.56
2018-05-31T14:26:27.032Z,81.57
2018-05-31T14:28:54.566Z,81.23
2018-05-31T14:31:22.107Z,79.85
2018-05-31T14:33:49.645Z,81.22
2018-05-31T14:36:17.179Z,81.78
2018-05-31T14:38:44.708Z,81.38
2018-05-31T14:41:12.223Z,81.59
2018-05-31T14:43:39.749Z,83.02
2018-05-31T14:46:07.255Z,82.68
2018-05-31T14:48:34.803Z,83.53
2018-05-31T14:51:03.077Z,83.87
2018-05-31T14:53:30.588Z,84.06
2018-05-31T14:55:58.126Z,84.51
2018-05-31T14:58:25.648Z,83.24
2018-05-31T15:00:53.183Z,83.74
2018-05-31T15:03:20.826Z,84.35
2018-05-31T15:05:48.355Z,84.59
2018-05-31T15:08:15.953Z,84.40
2018-05-31T15:10:43.485Z,84.47
2018-05-31T15:13:10.992Z,84.86
2018-05-31T15:15:38.641Z,85.07
2018-05-31T15:18:06.160Z,84.76
2018-05-31T15:20:33.671Z,84.88
2018-05-31T15:23:01.341Z,84.09
2018-05-31T15:25:28.863Z,83.97
2018-05-31T15:27:56.387Z,84.07
2018-05-31T15:30:23.994Z,85.59
2018-05-31T15:32:52.436Z,85.84
2018-05-31T15:35:19.947Z,86.19
2018-05-31T15:37:47.481Z,86.47
2018-05-31T15:40:15.427Z,86.28
2018-05-31T15:42:42.940Z,86.48
2018-05-31T15:45:10.446Z,86.90
2018-05-31T15:47:37.984Z,86.88
2018-05-31T15:50:05.502Z,86.74
2018-05-31T15:52:33.279Z,86.21
2018-05-31T15:55:00.795Z,86.28
2018-05-31T15:57:28.304Z,86.13
2018-05-31T15:59:55.846Z,85.79
2018-05-31T16:02:23.863Z,84.56
2018-05-31T16:04:51.391Z,83.97
2018-05-31T16:07:18.914Z,84.15
2018-05-31T16:09:46.418Z,84.38
2018-05-31T16:12:13.947Z,85.59
2018-05-31T16:14:41.600Z,85.78
2018-05-31T16:17:09.245Z,86.68
2018-05-31T16:19:36.759Z,87.39
2018-05-31T16:22:04.266Z,88.11
2018-05-31T16:24:31.806Z,88.13
2018-05-31T16:26:59.458Z,88.61
2018-05-31T16:29:26.966Z,88.26
2018-05-31T16:31:54.536Z,88.31
2018-05-31T16:34:22.058Z,89.65
2018-05-31T16:36:49.592Z,90.91
2018-05-31T16:39:17.139Z,91.56
2018-05-31T16:41:44.688Z,92.26
2018-05-31T16:44:12.385Z,92.57
2018-05-31T16:46:40.215Z,92.86
2018-05-31T16:49:07.775Z,93.07
2018-05-31T16:51:35.306Z,93.22
2018-05-31T16:54:02.812Z,93.26
2018-05-31T16:56:30.354Z,93.35
2018-05-31T16:58:57.858Z,93.38
2018-05-31T17:01:25.819Z,93.54
2018-05-31T17:03:53.338Z,93.59
2018-05-31T17:06:20.939Z,93.82
2018-05-31T17:08:48.475Z,93.93
2018-05-31T17:11:15.995Z,94.03
2018-05-31T17:13:43.695Z,94.10
2018-05-31T17:16:11.255Z,94.09
2018-05-31T17:18:38.763Z,93.92
2018-05-31T17:21:06.307Z,93.82
2018-05-31T17:23:33.814Z,93.79
2018-05-31T17:26:01.551Z,93.79
2018-05-31T17:28:29.076Z,93.61
2018-05-31T17:30:56.605Z,93.61
2018-05-31T17:33:24.160Z,93.38
2018-05-31T17:35:51.670Z,93.01
2018-05-31T17:38:19.175Z,92.66
2018-05-31T17:40:46.703Z,92.49
2018-05-31T17:43:14.224Z,92.12
2018-05-31T17:45:41.883Z,91.79
2018-05-31T17:48:09.391Z,91.45
2018-05-31T17:50:36.889Z,90.77
2018-05-31T17:53:04.411Z,90.02
2018-05-31T17:55:32.601Z,89.28
2018-05-31T17:58:00.135Z,89.17
2018-05-31T18:00:27.634Z,88.34
2018-05-31T18:02:55.163Z,88.31
2018-05-31T18:05:22.679Z,87.84
2018-05-31T18:07:50.299Z,87.89
2018-05-31T18:10:18.193Z,87.41
2018-05-31T18:12:45.747Z,86.51
2018-05-31T18:15:13.255Z,86.38
2018-05-31T18:17:40.774Z,85.95
2018-05-31T18:20:08.340Z,86.01
2018-05-31T18:22:35.834Z,86.17
2018-05-31T18:25:03.827Z,86.28
2018-05-31T18:27:31.748Z,85.87
2018-05-31T18:29:59.305Z,85.49
2018-05-31T18:32:26.867Z,86.74
2018-05-31T18:34:54.528Z,86.46
2018-05-31T18:37:22.053Z,86.77
2018-05-31T18:39:49.572Z,87.75
2018-05-31T18:42:17.107Z,88.29
2018-05-31T18:44:44.616Z,89.16
2018-05-31T18:47:12.176Z,89.80
2018-05-31T18:49:39.685Z,89.92
2018-05-31T18:52:07.195Z,90.48
2018-05-31T18:54:34.748Z,90.49
2018-05-31T18:57:02.284Z,90.26
2018-05-31T18:59:30.297Z,91.26
2018-05-31T19:01:57.795Z,91.86
2018-05-31T19:04:25.303Z,91.87
2018-05-31T19:06:52.843Z,91.90
2018-05-31T19:12:15.700Z,91.94
2018-05-31T19:14:43.208Z,92.01
2018-05-31T19:17:10.754Z,92.21
2018-05-31T19:19:43.904Z,92.23
2018-05-31T19:22:11.415Z,92.30
2018-05-31T19:24:44.627Z,92.40
2018-05-31T19:27:12.131Z,92.31
2018-05-31T19:29:39.812Z,92.36
2018-05-31T19:32:07.328Z,92.56
2018-05-31T19:34:35.335Z,92.53
2018-05-31T19:37:09.488Z,92.20
2018-05-31T19:39:37.325Z,92.50
2018-05-31T19:42:04.868Z,93.20
2018-05-31T19:44:39.324Z,93.68
2018-05-31T19:47:06.835Z,93.66
2018-05-31T19:49:34.389Z,93.67
2018-05-31T19:52:07.448Z,93.85
2018-05-31T19:54:34.978Z,93.96
2018-05-31T19:57:02.737Z,94.01
2018-05-31T19:59:35.923Z,94.06
2018-05-31T20:02:09.031Z,93.96
2018-05-31T20:04:36.540Z,93.88
2018-05-31T20:07:04.065Z,94.06
2018-05-31T20:09:31.626Z,94.44
2018-05-31T20:11:59.129Z,94.37
2018-05-31T20:14:26.706Z,94.43
2018-05-31T20:16:54.231Z,94.69
2018-05-31T20:19:21.740Z,94.58
2018-05-31T20:21:49.261Z,94.51
2018-05-31T20:24:16.804Z,94.64
2018-05-31T20:26:44.351Z,94.53
2018-05-31T20:29:11.863Z,94.35
2018-05-31T20:31:39.814Z,94.80
2018-05-31T20:34:07.317Z,94.98
2018-05-31T20:36:34.836Z,94.93
2018-05-31T20:39:02.472Z,94.94
2018-05-31T20:41:29.979Z,94.83
2018-05-31T20:43:57.487Z,94.91
2018-05-31T20:46:25.019Z,94.97
2018-05-31T20:48:52.535Z,94.88
2018-05-31T20:51:20.202Z,94.78
2018-05-31T20:53:47.728Z,94.85
2018-05-31T20:56:15.247Z,94.89
2018-05-31T20:58:42.821Z,94.99
2018-05-31T21:01:10.340Z,94.94
2018-05-31T21:03:37.864Z,94.94
2018-05-31T21:06:05.843Z,94.94
2018-05-31T21:08:33.347Z,94.91
2018-05-31T21:11:00.854Z,94.48
2018-05-31T21:13:28.396Z,94.46
2018-05-31T21:15:55.935Z,94.41
2018-05-31T21:18:23.506Z,94.18
2018-05-31T21:20:51.014Z,94.36
2018-05-31T21:23:18.528Z,94.71
2018-05-31T21:25:46.072Z,94.79
2018-05-31T21:28:13.583Z,94.80
2018-05-31T21:30:41.119Z,94.90
2018-05-31T21:33:08.635Z,95.05
2018-05-31T21:35:36.203Z,95.09
2018-05-31T21:38:41.775Z,95.18
2018-05-31T21:41:09.303Z,95.14
2018-05-31T21:43:36.804Z,95.18
2018-05-31T21:46:04.804Z,95.19
2018-05-31T21:48:32.316Z,95.17
2018-05-31T21:50:59.818Z,95.13
2018-05-31T21:53:27.338Z,95.23
2018-05-31T21:55:54.875Z,95.16
2018-05-31T21:58:22.367Z,95.20
2018-05-31T22:00:55.839Z,95.24
2018-05-31T22:03:23.344Z,95.21
2018-05-31T22:05:51.029Z,95.26
2018-05-31T22:08:18.534Z,95.32
2018-05-31T22:10:46.055Z,95.06
2018-05-31T22:13:13.738Z,95.00
2018-05-31T22:15:41.251Z,95.03
2018-05-31T22:18:08.757Z,95.17
2018-05-31T22:20:36.309Z,95.36
2018-05-31T22:23:03.814Z,95.47
2018-05-31T22:25:31.326Z,95.41
2018-05-31T22:27:58.880Z,95.80
2018-05-31T22:30:26.391Z,96.00
2018-05-31T22:32:53.945Z,96.17
2018-05-31T22:35:21.475Z,96.32
2018-05-31T22:37:48.995Z,96.38
2018-05-31T22:40:16.528Z,96.57
2018-05-31T22:42:44.063Z,96.66
2018-05-31T22:45:11.576Z,96.70
2018-05-31T22:47:39.110Z,96.72
2018-05-31T22:50:06.644Z,96.88
2018-05-31T22:52:34.171Z,97.27
2018-05-31T22:55:01.707Z,97.59
2018-05-31T22:57:29.251Z,97.75
2018-05-31T22:59:57.240Z,97.63
2018-05-31T23:02:24.749Z,97.75
2018-05-31T23:04:52.257Z,97.77
2018-05-31T23:07:20.147Z,97.66
2018-05-31T23:09:47.667Z,97.61
2018-05-31T23:12:16.130Z,97.54
2018-05-31T23:14:43.660Z,97.48
2018-05-31T23:17:11.170Z,97.48
2018-05-31T23:19:38.693Z,97.42
2018-05-31T23:22:06.198Z,97.14
2018-05-31T23:24:34.083Z,97.06
2018-05-31T23:27:01.587Z,96.85
2018-05-31T23:29:29.104Z,96.56
2018-05-31T23:31:56.739Z,96.66
2018-05-31T23:34:24.242Z,96.67
2018-05-31T23:36:51.744Z,96.19
2018-05-31T23:39:19.316Z,96.03
2018-05-31T23:41:46.846Z,96.29
2018-05-31T23:44:14.384Z,96.12
2018-05-31T23:46:41.895Z,95.92
2018-05-31T23:49:09.435Z,95.95
2018-05-31T23:51:36.944Z,96.14
2018-05-31T23:54:04.471Z,96.27
2018-05-31T23:56:32.032Z,96.35
2018-05-31T23:58:59.540Z,96.60
